< < Back
Terminal Aerodrome Forecast


Current Version              Previous Versions:   1  2  3  4  5  6  7  8  9  

Terminal Aerodrome Forecast

367
FTUS44 KMRX 201710 AAB
TAFCHA
TAF AMD
KCHA 201710Z 2017/2112 25014G24KT P6SM SCT040 BKN060
     FM201800 24012G22KT P6SM VCSH BKN050
     FM210000 27006KT P6SM SKC=



Latest METAR

140
SAUS80 KWBC 210100 RRA
MTRCHA
METAR KCHA 210053Z 25010G18KT 10SM FEW048 BKN065 BKN080 18/07 A2981 RMK
AO2 SLP089 T01830072


USA.gov is the U.S. government's official web portal to all federal, state and local government web resources and services.